Terminal Aerodrome Forecast
Issued by NWS

Home | Current Version | Previous Version | Text Only | Print | Product List | Glossary On
Versions: 1 2 3 4 5 6 7 8 9 10 11 12 13
000
FTUS43 KOAX 221142
TAFSNY
TAF
KSNY 221142Z 2212/2312 24009KT P6SM FEW250
     FM221700 25015G25KT P6SM BKN250
     FM230200 27015KT P6SM VCSH SCT040 BKN070=

USA.gov is the U.S. government's official web portal to all federal, state and local government web resources and services.